Terminal Aerodrome Forecast
Issued by NWS

Home | Current Version | Previous Version | Text Only | Print | Product List | Glossary On
Versions: 1 2 3 4 5 6 7 8 9 10 11 12 13 14 15 16 17 18 19
000
FTUS43 KDLH 292337
TAFHYR
TAF
KHYR 292337Z 3000/3024 18005KT P6SM OVC050
     FM300600 VRB02KT 3SM BR SCT007
     FM301000 00000KT 1 1/2SM BR BKN007
     FM301400 18010KT P6SM SCT050=

USA.gov is the U.S. government's official web portal to all federal, state and local government web resources and services.